Time;durP1;ratioP1;P1;durP2;ratioP2;P2;SDS_P1;SDS_P2;PMS_P1;PMS_P2;Temp;Humidity;BMP_temperature;BMP_pressure;BME280_temperature;BME280_humidity;BME280_pressure;Samples;Min_cycle;Max_cycle;Signal;HPM_P1;HPM_P2
2022/08/17 00:00:33;;;;;;;15.03;13.30;;;;;;;19.77;88.41;101126.31;4961716;28;20213;-77
2022/08/17 00:03:08;;;;;;;13.50;12.20;;;;;;;19.71;88.26;101122.06;4967565;28;20303;-77
2022/08/17 00:05:54;;;;;;;14.20;12.90;;;;;;;19.64;88.13;101125.63;4945911;28;20196;-77
2022/08/17 00:08:27;;;;;;;13.43;12.23;;;;;;;19.59;88.37;101131.75;4970236;28;20254;-77
2022/08/17 00:10:53;;;;;;;14.17;12.80;;;;;;;19.55;88.33;101128.34;4974520;28;20293;-77
2022/08/17 00:13:24;;;;;;;14.83;13.43;;;;;;;19.57;88.04;101133.53;4960539;28;20275;-77
2022/08/17 00:15:53;;;;;;;14.60;13.30;;;;;;;19.45;88.57;101137.13;4971204;28;20228;-77
2022/08/17 00:18:18;;;;;;;14.83;13.47;;;;;;;19.50;88.53;101132.75;4938939;28;20251;-77
2022/08/17 00:20:45;;;;;;;14.10;12.70;;;;;;;19.50;88.00;101137.94;4969836;28;20220;-77
2022/08/17 00:23:13;;;;;;;14.37;13.00;;;;;;;19.53;88.22;101137.03;4972188;28;20243;-77
2022/08/17 00:25:40;;;;;;;14.50;13.20;;;;;;;19.50;88.68;101140.53;4979247;28;20344;-77
2022/08/17 00:28:06;;;;;;;14.47;13.17;;;;;;;19.48;88.57;101137.09;4973338;28;20228;-76
2022/08/17 00:30:33;;;;;;;14.70;13.43;;;;;;;19.43;88.59;101136.28;4950217;28;20767;-77
2022/08/17 00:32:59;;;;;;;15.87;14.23;;;;;;;19.42;88.18;101133.69;4961628;28;20694;-76
2022/08/17 00:35:26;;;;;;;15.10;13.70;;;;;;;19.41;88.60;101137.19;4977714;28;20200;-76
2022/08/17 00:37:53;;;;;;;13.70;12.50;;;;;;;19.37;89.60;101125.09;4971036;28;20274;-77
2022/08/17 00:40:19;;;;;;;14.40;13.20;;;;;;;19.42;90.11;101131.97;4971952;28;20299;-77
2022/08/17 00:42:46;;;;;;;14.73;13.47;;;;;;;19.43;90.60;101135.44;4975556;28;20318;-77
2022/08/17 00:45:14;;;;;;;16.03;14.57;;;;;;;19.30;91.17;101132.09;4972120;28;20188;-76
2022/08/17 00:47:40;;;;;;;17.53;14.70;;;;;;;19.27;91.00;101126.09;4971340;28;20917;-76
2022/08/17 00:50:08;;;;;;;15.13;13.83;;;;;;;19.18;90.92;101121.84;4944857;28;20481;-75
2022/08/17 00:52:38;;;;;;;15.93;14.43;;;;;;;19.17;90.67;101129.63;4959666;28;20221;-76
2022/08/17 00:55:06;;;;;;;14.87;13.57;;;;;;;19.16;90.21;101120.97;4974486;28;20916;-76
2022/08/17 00:57:40;;;;;;;16.73;15.23;;;;;;;19.21;90.25;101121.78;4979381;28;20189;-75
2022/08/17 01:00:16;;;;;;;18.37;16.87;;;;;;;19.21;90.86;101129.56;4969004;28;20411;-75
2022/08/17 01:02:45;;;;;;;21.40;19.20;;;;;;;19.20;91.38;101127.84;4962644;28;20278;-76
2022/08/17 01:05:18;;;;;;;22.57;20.37;;;;;;;19.17;92.91;101130.47;4971149;28;20239;-75
2022/08/17 01:07:46;;;;;;;20.97;19.13;;;;;;;19.15;92.30;101136.56;4974818;28;20251;-76
2022/08/17 01:10:14;;;;;;;19.87;17.93;;;;;;;19.02;92.31;101135.84;4969617;28;20276;-75
2022/08/17 01:12:39;;;;;;;19.40;17.60;;;;;;;19.05;92.15;101137.53;4961838;28;20219;-76
2022/08/17 01:15:05;;;;;;;19.50;17.67;;;;;;;18.97;92.46;101136.78;4975787;28;20196;-76
2022/08/17 01:17:32;;;;;;;18.20;16.50;;;;;;;18.96;91.84;101140.22;4972319;28;20582;-77
2022/08/17 01:19:57;;;;;;;18.90;17.03;;;;;;;18.95;91.78;101139.38;4955700;28;20196;-76
2022/08/17 01:22:24;;;;;;;18.10;16.60;;;;;;;18.88;91.98;101136.88;4952392;28;20220;-76
2022/08/17 01:24:59;;;;;;;18.00;16.37;;;;;;;18.84;91.88;101136.03;4967321;28;20195;-76
2022/08/17 01:27:26;;;;;;;18.17;16.57;;;;;;;18.84;91.61;101136.03;4959085;28;20189;-76
2022/08/17 01:29:57;;;;;;;18.07;16.37;;;;;;;18.83;91.32;101136.06;4967775;28;20662;-75
2022/08/17 01:32:24;;;;;;;18.03;16.53;;;;;;;18.79;91.64;101147.34;4975396;28;20291;-76
2022/08/17 01:34:50;;;;;;;19.83;18.13;;;;;;;18.78;90.95;101140.41;4968203;28;20212;-76
2022/08/17 01:37:17;;;;;;;19.57;17.80;;;;;;;18.76;90.64;101143.03;4970408;28;20588;-76
2022/08/17 01:39:49;;;;;;;18.63;17.00;;;;;;;18.72;91.69;101149.13;4971018;28;20630;-77
2022/08/17 01:42:23;;;;;;;17.33;15.53;;;;;;;18.69;91.63;101153.47;4970834;28;20282;-77
2022/08/17 01:44:54;;;;;;;17.20;15.70;;;;;;;18.72;91.05;101156.03;4974259;28;20243;-76
2022/08/17 01:47:19;;;;;;;17.90;16.23;;;;;;;18.68;90.59;101160.41;4961824;28;20215;-76
2022/08/17 01:49:45;;;;;;;17.43;15.90;;;;;;;18.62;90.62;101155.28;4954244;28;20223;-77
2022/08/17 01:52:11;;;;;;;18.27;16.67;;;;;;;18.60;90.75;101157.00;4963977;28;20255;-76
2022/08/17 01:54:40;;;;;;;17.40;15.93;;;;;;;18.58;91.16;101156.16;4969639;28;20702;-76
2022/08/17 01:57:06;;;;;;;20.37;18.53;;;;;;;18.58;91.01;101158.75;4969448;28;20242;-77
2022/08/17 01:59:32;;;;;;;21.53;19.30;;;;;;;18.55;91.95;101155.31;4968119;28;20369;-76
2022/08/17 02:01:58;;;;;;;20.73;18.73;;;;;;;18.48;93.10;101151.06;4948317;28;20322;-77
2022/08/17 02:04:24;;;;;;;19.90;18.10;;;;;;;18.54;92.30;101153.59;4960577;28;20200;-77
2022/08/17 02:06:50;;;;;;;19.77;17.97;;;;;;;18.49;92.17;101150.19;4948330;28;20185;-76
2022/08/17 02:09:15;;;;;;;22.10;20.10;;;;;;;18.54;92.34;101153.59;4960232;28;20884;-76
2022/08/17 02:11:41;;;;;;;22.17;20.17;;;;;;;18.49;93.15;101147.59;4970494;28;20211;-76
2022/08/17 02:14:09;;;;;;;21.00;19.10;;;;;;;18.41;92.84;101150.25;4960174;28;20226;-76
2022/08/17 02:16:37;;;;;;;21.77;19.87;;;;;;;18.39;92.72;101154.59;4962199;28;20698;-77
2022/08/17 02:19:10;;;;;;;22.63;20.53;;;;;;;18.39;92.94;101156.31;4969466;28;20211;-77
2022/08/17 02:21:37;;;;;;;22.17;20.27;;;;;;;18.41;92.50;101159.75;4962156;28;20774;-76
2022/08/17 02:24:04;;;;;;;21.03;19.23;;;;;;;18.38;92.41;101157.19;4973698;28;20196;-76
2022/08/17 02:26:30;;;;;;;18.57;16.83;;;;;;;18.37;92.43;101164.09;4970008;28;20184;-76
2022/08/17 02:28:55;;;;;;;20.77;18.83;;;;;;;18.36;91.71;101144.22;4967967;28;20227;-76
2022/08/17 02:31:21;;;;;;;18.97;17.37;;;;;;;18.31;91.97;101147.69;4959179;28;20705;-75
2022/08/17 02:33:46;;;;;;;20.40;18.70;;;;;;;18.31;91.93;101147.69;4976160;28;20753;-75
2022/08/17 02:36:12;;;;;;;21.47;19.47;;;;;;;18.28;92.40;101148.56;4971232;28;20192;-76
2022/08/17 02:38:39;;;;;;;20.37;18.53;;;;;;;18.26;92.53;101154.63;4972835;28;20184;-76
2022/08/17 02:41:05;;;;;;;21.90;19.90;;;;;;;18.26;93.53;101152.03;4961193;28;20717;-76
2022/08/17 02:43:30;;;;;;;21.87;19.97;;;;;;;18.27;93.49;101154.63;4971959;28;20292;-75
2022/08/17 02:45:56;;;;;;;22.70;20.70;;;;;;;18.28;93.52;101155.50;4973953;28;20192;-76
2022/08/17 02:48:21;;;;;;;21.73;19.60;;;;;;;18.23;93.38;101152.09;4972430;28;20204;-76
2022/08/17 02:50:48;;;;;;;21.07;18.97;;;;;;;18.19;93.07;101151.22;4972006;28;20670;-76
2022/08/17 02:53:14;;;;;;;20.93;18.93;;;;;;;18.18;93.23;101154.69;4963147;28;20207;-76
2022/08/17 02:55:41;;;;;;;19.50;17.80;;;;;;;18.18;93.08;101148.63;4983902;28;20204;-76
2022/08/17 02:58:09;;;;;;;21.10;19.03;;;;;;;18.19;92.70;101146.03;4972751;28;20220;-76
2022/08/17 03:00:39;;;;;;;23.37;21.27;;;;;;;18.26;93.20;101145.13;4950272;28;20184;-76
2022/08/17 03:03:07;;;;;;;22.43;20.27;;;;;;;18.27;94.10;101143.38;4974097;28;20282;-76
2022/08/17 03:05:35;;;;;;;24.60;22.40;;;;;;;18.27;94.32;101146.84;4974019;28;20205;-77
2022/08/17 03:08:02;;;;;;;25.07;22.67;;;;;;;18.22;94.34;101148.63;4958331;28;20192;-77
2022/08/17 03:10:28;;;;;;;23.87;21.63;;;;;;;18.15;94.48;101149.50;4967870;28;20192;-76
2022/08/17 03:12:54;;;;;;;23.67;21.47;;;;;;;18.13;93.42;101142.63;4973701;28;20219;-76
2022/08/17 03:15:26;;;;;;;23.63;21.23;;;;;;;18.10;93.12;101146.09;4965557;28;20189;-76
2022/08/17 03:17:52;;;;;;;24.67;22.27;;;;;;;18.03;93.07;101143.56;4970381;28;20228;-76
2022/08/17 03:20:19;;;;;;;24.13;21.90;;;;;;;18.01;93.46;101146.16;4972119;28;20196;-75
2022/08/17 03:22:47;;;;;;;23.43;21.30;;;;;;;18.00;93.28;101152.22;4972582;28;20464;-76
2022/08/17 03:25:20;;;;;;;25.63;23.13;;;;;;;17.98;93.72;101156.56;4958987;28;20207;-76
2022/08/17 03:27:45;;;;;;;26.13;23.63;;;;;;;17.96;94.08;101160.03;4962591;28;20571;-76
2022/08/17 03:30:14;;;;;;;26.50;24.20;;;;;;;17.99;94.47;101162.59;4971137;28;20185;-76
2022/08/17 03:32:42;;;;;;;27.23;24.53;;;;;;;17.97;94.48;101157.41;4973410;28;20236;-76
2022/08/17 03:35:09;;;;;;;28.73;26.13;;;;;;;17.99;94.31;101155.69;4960651;28;20580;-76
2022/08/17 03:37:35;;;;;;;26.37;23.87;;;;;;;17.94;93.89;101153.97;4944702;28;20728;-76
2022/08/17 03:40:02;;;;;;;27.37;24.67;;;;;;;17.96;93.83;101150.50;4959709;28;20216;-76
2022/08/17 03:42:27;;;;;;;26.17;23.47;;;;;;;17.91;93.86;101172.16;4973801;28;20706;-76
2022/08/17 03:44:56;;;;;;;24.27;22.07;;;;;;;17.86;93.51;101160.91;4973126;28;20189;-76
2022/08/17 03:58:22;;;;;;;24.83;22.43;;;;;;;17.70;92.64;101151.50;4956101;28;20217;-75
2022/08/17 04:00:49;;;;;;;25.93;23.27;;;;;;;17.67;92.93;101157.56;4968106;28;20351;-78
2022/08/17 04:03:15;;;;;;;25.43;23.03;;;;;;;17.66;92.85;101158.44;4966463;28;20765;-75
2022/08/17 04:05:41;;;;;;;26.97;24.47;;;;;;;17.69;93.30;101162.75;4972735;28;20200;-76
2022/08/17 04:08:07;;;;;;;25.87;23.37;;;;;;;17.64;92.80;101154.97;4973877;28;20581;-75
2022/08/17 04:10:33;;;;;;;26.83;24.37;;;;;;;17.63;93.42;101155.84;4963323;28;20199;-75
2022/08/17 04:13:00;;;;;;;26.93;24.53;;;;;;;17.62;93.38;101159.31;4971991;28;20212;-76
2022/08/17 04:15:27;;;;;;;27.57;25.07;;;;;;;17.61;93.52;101156.72;4960135;28;20189;-75
2022/08/17 04:17:54;;;;;;;28.23;25.73;;;;;;;17.65;93.20;101161.91;4972258;28;20224;-78
2022/08/17 04:20:21;;;;;;;30.53;27.63;;;;;;;17.64;93.17;101169.69;4955857;28;20272;-74
2022/08/17 04:23:04;;;;;;;29.93;27.23;;;;;;;17.64;93.56;101160.16;4971992;28;20212;-78
2022/08/17 04:25:32;;;;;;;27.17;24.53;;;;;;;17.63;93.94;101162.75;4948192;28;20192;-75
2022/08/17 04:27:59;;;;;;;29.77;26.70;;;;;;;17.64;92.96;101165.34;4969546;28;20201;-77
2022/08/17 04:30:27;;;;;;;28.47;25.73;;;;;;;17.61;93.27;101167.97;4971883;28;20228;-75
2022/08/17 04:33:27;;;;;;;28.00;25.40;;;;;;;17.58;93.38;101174.88;4972287;28;20235;-77
2022/08/17 04:35:56;;;;;;;28.27;25.33;;;;;;;17.62;93.42;101172.28;4927658;28;20209;-78
2022/08/17 04:38:25;;;;;;;28.37;25.77;;;;;;;17.63;93.53;101173.13;4973961;28;20231;-76
2022/08/17 04:43:37;;;;;;;29.67;26.87;;;;;;;17.69;94.43;101176.53;4971962;28;20192;-77
2022/08/17 04:46:14;;;;;;;30.67;27.87;;;;;;;17.72;94.32;101173.06;4963715;28;20200;-77
2022/08/17 04:48:46;;;;;;;28.37;25.77;;;;;;;17.80;94.69;101171.31;4970846;28;20185;-76
2022/08/17 04:51:26;;;;;;;29.27;26.70;;;;;;;17.84;95.36;101173.03;4972473;28;20255;-76
2022/08/17 04:53:59;;;;;;;27.80;25.30;;;;;;;17.87;95.63;101181.66;4959782;28;20212;-77
2022/08/17 04:56:26;;;;;;;26.97;24.57;;;;;;;17.93;95.08;101181.63;4956602;28;20715;-77
2022/08/17 04:58:54;;;;;;;27.93;25.43;;;;;;;18.01;95.37;101177.25;4963836;28;20196;-77
2022/08/17 05:01:23;;;;;;;26.53;23.93;;;;;;;18.06;95.74;101174.66;4967986;28;20223;-76
2022/08/17 05:03:48;;;;;;;28.30;25.70;;;;;;;18.14;95.41;101183.25;4974816;28;20601;-76
2022/08/17 05:06:14;;;;;;;26.60;24.20;;;;;;;18.23;95.09;101186.63;4970861;28;20235;-75
2022/08/17 05:08:39;;;;;;;24.83;22.67;;;;;;;18.27;95.08;101182.28;4971683;28;20280;-76
2022/08/17 05:11:05;;;;;;;23.83;21.73;;;;;;;18.37;95.00;101173.63;4975901;28;20217;-76
2022/08/17 05:13:30;;;;;;;26.33;24.03;;;;;;;18.46;94.27;101173.53;4971151;28;20283;-76
2022/08/17 05:15:59;;;;;;;25.17;22.97;;;;;;;18.56;94.84;101176.06;4963334;28;20705;-77
2022/08/17 05:18:24;;;;;;;26.13;23.63;;;;;;;18.69;95.08;101180.28;4959456;28;20693;-76
2022/08/17 05:20:51;;;;;;;27.20;24.70;;;;;;;18.83;94.94;101186.22;4970616;28;20216;-76
2022/08/17 05:23:18;;;;;;;27.73;25.23;;;;;;;18.94;95.24;101183.53;4971324;28;20618;-76
2022/08/17 05:25:47;;;;;;;26.80;24.30;;;;;;;19.04;94.78;101179.97;4971161;28;20189;-76
2022/08/17 05:28:13;;;;;;;27.10;24.70;;;;;;;19.20;95.00;101182.41;4966965;28;20262;-76
2022/08/17 05:30:41;;;;;;;27.13;24.83;;;;;;;19.33;94.96;101176.22;4974469;28;20271;-76
2022/08/17 05:33:10;;;;;;;29.00;26.50;;;;;;;19.46;94.88;101185.63;4979458;28;20225;-76
2022/08/17 05:35:41;;;;;;;28.90;26.40;;;;;;;19.58;95.17;101185.47;4963434;28;20196;-76
2022/08/17 05:38:07;;;;;;;28.60;26.07;;;;;;;19.63;94.68;101185.41;4972828;28;20192;-76
2022/08/17 05:40:32;;;;;;;27.83;25.07;;;;;;;19.73;95.57;101182.69;4968494;28;20667;-76
2022/08/17 05:43:05;;;;;;;28.80;26.23;;;;;;;19.84;94.56;101186.00;4970988;28;20217;-76
2022/08/17 05:45:31;;;;;;;26.83;24.43;;;;;;;19.90;94.18;101187.69;4956834;28;20188;-76
2022/08/17 05:47:57;;;;;;;27.20;24.67;;;;;;;20.00;93.94;101187.50;4971452;28;20199;-77
2022/08/17 05:50:27;;;;;;;26.87;24.27;;;;;;;20.04;94.21;101180.56;4970782;28;20189;-76
2022/08/17 05:52:59;;;;;;;29.40;26.73;;;;;;;20.16;94.31;101186.47;4956361;28;20299;-77
2022/08/17 05:55:55;;;;;;;29.17;26.67;;;;;;;20.23;94.36;101184.66;4963269;28;20215;-76
2022/08/17 05:58:28;;;;;;;30.00;26.77;;;;;;;20.48;93.76;101188.59;4969674;28;20655;-77
2022/08/17 06:01:14;;;;;;;32.97;29.60;;;;;;;20.72;93.34;101190.78;4969529;28;20224;-77
2022/08/17 06:03:39;;;;;;;31.07;28.03;;;;;;;20.91;92.96;101181.84;4969382;28;20185;-77
2022/08/17 06:06:32;;;;;;;31.10;28.20;;;;;;;21.06;92.93;101192.84;4967584;28;20196;-76
2022/08/17 06:09:12;;;;;;;28.80;25.73;;;;;;;21.13;92.11;101197.06;4937705;28;20269;-78
2022/08/17 06:11:44;;;;;;;30.60;27.47;;;;;;;21.28;91.07;101195.94;4950222;28;20252;-77
2022/08/17 06:14:42;;;;;;;27.73;24.87;;;;;;;21.48;89.88;101191.19;4962917;28;20662;-77
2022/08/17 06:17:12;;;;;;;27.17;24.50;;;;;;;21.63;88.34;101189.16;4961867;28;20720;-78
2022/08/17 06:19:46;;;;;;;28.57;25.60;;;;;;;21.69;88.39;101190.81;4970320;28;20643;-78
2022/08/17 06:22:14;;;;;;;26.87;24.17;;;;;;;21.74;88.17;101192.41;4959124;28;20290;-77
2022/08/17 06:24:55;;;;;;;26.53;24.03;;;;;;;21.81;87.38;101195.75;4961593;28;20573;-77
2022/08/17 06:27:37;;;;;;;25.57;23.10;;;;;;;21.84;86.67;101195.72;4969704;28;20184;-77
2022/08/17 06:30:20;;;;;;;26.37;23.97;;;;;;;21.91;86.15;101202.50;4967794;28;20208;-77
2022/08/17 06:32:48;;;;;;;26.33;23.70;;;;;;;22.11;85.64;101201.19;4970028;28;20654;-77
2022/08/17 06:35:25;;;;;;;26.00;23.30;;;;;;;22.30;84.51;101194.66;4956815;28;20192;-77
2022/08/17 06:38:05;;;;;;;24.93;22.63;;;;;;;22.56;84.29;101198.47;4960978;28;20709;-77
2022/08/17 06:41:06;;;;;;;24.53;22.17;;;;;;;22.62;83.25;101196.56;4965703;28;20192;-77
2022/08/17 06:44:01;;;;;;;24.13;21.27;;;;;;;22.93;82.96;101200.13;4976329;28;20223;-77
2022/08/17 06:46:47;;;;;;;22.10;20.00;;;;;;;23.16;82.07;101195.16;4957836;28;20203;-76
2022/08/17 06:49:20;;;;;;;22.40;20.33;;;;;;;23.30;80.91;101187.00;4956873;28;20192;-76
2022/08/17 06:51:57;;;;;;;22.53;20.43;;;;;;;23.41;80.47;101185.81;4958029;28;20208;-76
2022/08/17 06:54:49;;;;;;;21.05;19.05;;;;;;;23.65;79.94;101194.69;4955545;28;20192;-77
2022/08/17 06:57:23;;;;;;;21.20;19.10;;;;;;;23.83;78.57;101191.56;4963007;28;20184;-76
2022/08/17 06:59:57;;;;;;;21.13;18.90;;;;;;;23.96;78.07;101193.81;4970269;28;20196;-77
2022/08/17 07:02:44;;;;;;;30.58;19.02;;;;;;;24.12;77.60;101189.84;4969457;28;20303;-77
2022/08/17 07:05:11;;;;;;;21.13;18.77;;;;;;;24.25;76.58;101188.56;4968692;28;20222;-79
2022/08/17 07:10:24;;;;;;;19.52;17.73;;;;;;;24.50;76.46;101189.47;4968787;28;20242;-77
2022/08/17 07:12:57;;;;;;;20.23;18.33;;;;;;;24.65;75.51;101185.56;4968135;28;20208;-76
2022/08/17 07:15:38;;;;;;;18.25;16.55;;;;;;;24.88;75.17;101183.03;4970779;28;20207;-78
2022/08/17 07:18:04;;;;;;;19.38;17.52;;;;;;;25.08;74.08;101191.06;4941913;28;20658;-77
2022/08/17 07:20:30;;;;;;;18.50;17.00;;;;;;;25.14;73.51;101190.88;4962835;28;20247;-77
2022/08/17 07:23:23;;;;;;;18.27;16.65;;;;;;;25.22;72.39;101194.06;4973507;28;20227;-77
2022/08/17 07:25:48;;;;;;;18.98;17.13;;;;;;;25.32;71.79;101192.88;4960614;28;20678;-78
2022/08/17 07:28:21;;;;;;;15.05;13.52;;;;;;;25.56;71.08;101190.22;4965149;28;20188;-78
2022/08/17 07:30:52;;;;;;;15.07;13.48;;;;;;;25.76;69.29;101193.00;4972017;28;20272;-77
2022/08/17 07:33:23;;;;;;;14.55;13.10;;;;;;;25.76;68.67;101190.38;4974419;28;20193;-79
2022/08/17 07:35:49;;;;;;;13.23;11.80;;;;;;;26.05;67.45;101191.91;4973610;28;20192;-78
2022/08/17 07:38:23;;;;;;;13.50;12.13;;;;;;;26.27;68.89;101180.50;4966633;28;20199;-79
2022/08/17 07:40:56;;;;;;;11.70;10.50;;;;;;;26.60;66.05;101179.19;4968786;28;20222;-78
2022/08/17 07:43:21;;;;;;;12.07;10.63;;;;;;;26.78;65.53;101175.81;4973146;28;20208;-78
2022/08/17 07:48:40;;;;;;;10.38;9.45;;;;;;;27.15;63.69;101182.97;4973342;28;20197;-78
2022/08/17 07:51:21;;;;;;;11.00;9.45;;;;;;;27.28;62.50;101171.03;4972518;28;20217;-78
2022/08/17 07:53:47;;;;;;;10.02;9.05;;;;;;;27.55;58.71;101175.06;4969481;28;20258;-77
2022/08/17 07:56:33;;;;;;;10.32;8.20;;;;;;;27.92;56.17;101176.00;4969148;28;20271;-77
2022/08/17 07:59:19;;;;;;;8.35;7.60;;;;;;;28.24;55.84;101174.47;4942810;28;20195;-78
2022/08/17 08:01:56;;;;;;;8.13;7.32;;;;;;;28.64;53.23;101171.66;4961221;28;20278;-77
2022/08/17 08:04:38;;;;;;;7.55;6.50;;;;;;;28.86;50.13;101180.16;4972116;28;20203;-78
2022/08/17 08:07:09;;;;;;;8.18;7.38;;;;;;;28.81;50.86;101179.56;4977997;28;20287;-78
2022/08/17 08:09:42;;;;;;;7.28;6.70;;;;;;;28.84;52.06;101174.13;4970698;28;20189;-78
2022/08/17 08:12:34;;;;;;;7.30;6.65;;;;;;;29.02;50.65;101179.34;4962325;28;20213;-78
2022/08/17 08:15:02;;;;;;;8.15;6.97;;;;;;;29.10;50.63;101177.19;4971230;28;20188;-78
2022/08/17 08:17:36;;;;;;;7.13;6.47;;;;;;;29.02;50.46;101176.72;4944310;28;20197;-78
2022/08/17 08:20:07;;;;;;;9.00;6.60;;;;;;;29.12;51.28;101187.66;4972460;28;20191;-77
2022/08/17 08:22:51;;;;;;;7.13;6.43;;;;;;;29.26;49.88;101186.03;4972276;28;20271;-77
2022/08/17 08:25:46;;;;;;;7.20;6.65;;;;;;;29.43;52.43;101185.97;4953602;28;20243;-77
2022/08/17 08:28:17;;;;;;;7.63;6.57;;;;;;;29.69;50.70;101188.13;4943261;28;20290;-77
2022/08/17 08:30:48;;;;;;;8.05;6.50;;;;;;;29.89;49.61;101184.41;4971777;28;20185;-77
2022/08/17 08:33:39;;;;;;;7.22;6.55;;;;;;;29.54;48.25;101188.06;4960263;28;20546;-77
2022/08/17 08:36:27;;;;;;;7.03;6.32;;;;;;;30.01;47.18;101186.34;4964592;28;20562;-77
2022/08/17 08:39:11;;;;;;;7.15;5.90;;;;;;;30.25;45.05;101192.13;4957859;28;20672;-77
2022/08/17 08:42:01;;;;;;;6.53;5.93;;;;;;;30.13;46.59;101192.78;4972117;28;20224;-77
2022/08/17 08:44:43;;;;;;;9.77;6.18;;;;;;;30.33;46.26;101190.75;4958186;28;20207;-77
2022/08/17 08:47:47;;;;;;;7.50;6.35;;;;;;;30.55;46.45;101199.16;4968522;28;20196;-77
2022/08/17 08:50:41;;;;;;;6.55;5.82;;;;;;;30.94;44.74;101193.38;4968356;28;20681;-77
2022/08/17 08:53:10;;;;;;;6.47;5.88;;;;;;;30.75;44.75;101190.94;4971828;28;20302;-77
2022/08/17 08:56:03;;;;;;;6.97;5.93;;;;;;;31.00;46.19;101198.31;4962293;28;20200;-77
2022/08/17 08:58:49;;;;;;;6.70;5.55;;;;;;;31.22;43.84;101199.63;4972188;28;20228;-77
2022/08/17 09:01:33;;;;;;;6.68;6.00;;;;;;;31.16;44.88;101205.25;4964014;28;20228;-77
2022/08/17 09:04:27;;;;;;;7.55;6.63;;;;;;;31.04;42.92;101202.47;4962757;28;20674;-77
2022/08/17 09:07:24;;;;;;;6.15;5.65;;;;;;;31.14;43.22;101206.28;4940964;28;20228;-77
2022/08/17 09:09:59;;;;;;;6.35;5.82;;;;;;;31.16;44.48;101204.41;4965962;28;20223;-78
2022/08/17 09:12:39;;;;;;;7.25;6.40;;;;;;;31.21;44.16;101213.78;4963505;28;20200;-77
2022/08/17 09:15:19;;;;;;;7.38;6.70;;;;;;;31.25;43.23;101207.38;4961213;28;20267;-77
2022/08/17 09:17:58;;;;;;;9.75;7.38;;;;;;;31.07;43.10;101205.78;4954274;28;20243;-76
2022/08/17 09:20:31;;;;;;;7.93;6.80;;;;;;;31.20;42.91;101209.41;4953648;28;20188;-77
2022/08/17 09:23:06;;;;;;;8.02;7.10;;;;;;;31.72;42.35;101209.78;4970675;28;20228;-76
2022/08/17 09:25:44;;;;;;;7.68;6.07;;;;;;;32.07;41.38;101203.13;4959892;28;20192;-77
2022/08/17 09:28:25;;;;;;;7.05;6.45;;;;;;;31.75;41.27;101210.47;4972219;28;20188;-77
2022/08/17 09:31:01;;;;;;;8.20;6.35;;;;;;;31.60;42.73;101210.53;4972418;28;20239;-76
2022/08/17 09:33:28;;;;;;;6.70;6.10;;;;;;;31.80;42.32;101210.16;4972004;28;20542;-78
2022/08/17 09:36:21;;;;;;;6.82;5.70;;;;;;;32.18;40.48;101208.63;4971709;28;20247;-77
2022/08/17 09:39:12;;;;;;;6.88;6.28;;;;;;;32.07;40.82;101217.25;4969112;28;20733;-77
2022/08/17 09:41:47;;;;;;;7.28;6.53;;;;;;;31.72;41.26;101201.84;4971471;28;20718;-77
2022/08/17 09:44:21;;;;;;;6.50;5.90;;;;;;;31.81;41.62;101210.09;4973133;28;20674;-78
2022/08/17 09:47:14;;;;;;;6.30;5.85;;;;;;;32.18;41.62;101204.16;4980050;28;20266;-78
2022/08/17 09:49:47;;;;;;;7.38;6.68;;;;;;;31.46;42.36;101211.38;4956484;28;20291;-77
2022/08/17 09:52:23;;;;;;;7.22;6.47;;;;;;;32.16;40.96;101202.56;4955221;28;20219;-77
2022/08/17 09:54:52;;;;;;;7.35;6.57;;;;;;;32.52;41.89;101201.06;4972177;28;20176;-77
2022/08/17 09:57:29;;;;;;;10.90;6.43;;;;;;;32.58;40.20;101205.09;4938162;28;20200;-76
2022/08/17 10:00:12;;;;;;;6.72;6.10;;;;;;;32.81;40.28;101197.38;4932469;28;20654;-76
2022/08/17 10:03:04;;;;;;;7.05;6.35;;;;;;;32.60;40.34;101213.84;4968774;28;20231;-76
2022/08/17 10:40:48;;;;;;;6.63;6.03;;;;;;;32.54;38.90;101204.47;5045284;27;1280502;-77
2022/08/17 10:43:25;;;;;;;7.47;5.90;;;;;;;32.51;39.01;101199.34;5088369;28;20310;-78
2022/08/17 10:46:07;;;;;;;6.55;5.95;;;;;;;32.50;37.83;101195.00;5076021;28;20206;-78
2022/08/17 10:48:35;;;;;;;6.43;5.45;;;;;;;32.17;37.94;101196.31;5094212;28;20231;-78
2022/08/17 10:51:33;;;;;;;5.90;5.50;;;;;;;31.66;38.10;101189.81;5083746;28;20212;-78
2022/08/17 10:54:00;;;;;;;7.43;5.90;;;;;;;31.61;38.66;101191.91;5084239;28;20243;-78
2022/08/17 10:56:45;;;;;;;6.53;5.70;;;;;;;31.75;39.04;101191.06;5098105;28;20320;-77
2022/08/17 10:59:33;;;;;;;7.50;5.90;;;;;;;31.87;39.52;101190.31;5080665;28;20199;-78
2022/08/17 11:02:11;;;;;;;9.18;5.88;;;;;;;31.97;38.77;101188.78;5064705;28;20211;-77
2022/08/17 11:05:14;;;;;;;6.60;5.90;;;;;;;31.62;39.77;101183.00;5064399;28;20196;-78
2022/08/17 11:08:14;;;;;;;7.68;5.60;;;;;;;31.80;38.93;101187.19;5080100;28;20218;-77
2022/08/17 11:10:55;;;;;;;7.40;5.90;;;;;;;32.16;39.45;101184.00;5079037;28;20967;-78
2022/08/17 11:13:59;;;;;;;6.45;5.72;;;;;;;32.21;40.07;101189.84;5080200;28;20173;-77
2022/08/17 11:16:50;;;;;;;6.43;5.82;;;;;;;32.33;39.03;101189.09;5063848;28;20195;-77
2022/08/17 11:19:31;;;;;;;7.43;6.28;;;;;;;31.93;39.71;101176.66;5062431;28;20201;-77
2022/08/17 11:22:35;;;;;;;6.50;6.00;;;;;;;32.28;39.26;101175.28;5031069;28;20309;-76
2022/08/17 11:25:13;;;;;;;6.88;6.05;;;;;;;32.53;39.89;101173.56;5054076;28;20188;-77
2022/08/17 11:27:40;;;;;;;6.97;6.30;;;;;;;32.52;39.31;101171.03;5095149;28;20188;-76
2022/08/17 11:30:12;;;;;;;6.60;6.00;;;;;;;32.90;38.91;101167.53;5098800;28;20208;-78
2022/08/17 11:32:50;;;;;;;7.13;6.03;;;;;;;33.27;37.89;101169.38;5071330;28;20192;-78
2022/08/17 11:35:21;;;;;;;7.10;5.90;;;;;;;33.71;36.19;101155.66;5080311;28;20180;-78
2022/08/17 11:38:24;;;;;;;6.43;5.75;;;;;;;34.27;35.36;101163.91;5077953;28;20223;-78
2022/08/17 11:41:08;;;;;;;5.40;5.00;;;;;;;34.22;35.07;101157.22;5073174;28;20243;-77
2022/08/17 11:43:52;;;;;;;5.63;5.07;;;;;;;33.86;35.90;101155.44;5087366;28;20165;-78
2022/08/17 11:52:42;;;;;;;6.43;5.45;;;;;;;34.21;33.99;101168.84;5069381;28;20189;-78
2022/08/17 11:55:12;;;;;;;5.60;5.10;;;;;;;33.73;34.73;101153.72;5086773;28;20189;-78
2022/08/17 11:57:41;;;;;;;5.28;4.63;;;;;;;33.90;33.51;101156.06;5085484;28;20201;-78
2022/08/17 12:00:28;;;;;;;5.13;4.63;;;;;;;33.44;34.67;101163.78;5086087;28;20713;-78
2022/08/17 12:03:23;;;;;;;6.13;5.60;;;;;;;33.45;34.87;101151.31;5080720;28;20238;-78
2022/08/17 12:05:59;;;;;;;6.55;5.70;;;;;;;34.02;35.62;101161.34;5066677;28;20577;-77
2022/08/17 12:08:29;;;;;;;5.60;5.10;;;;;;;34.02;35.18;101153.34;5104728;28;20196;-77
2022/08/17 12:10:58;;;;;;;6.05;5.35;;;;;;;33.93;34.30;101153.19;5105909;28;20219;-78
2022/08/17 12:13:24;;;;;;;6.28;5.28;;;;;;;33.89;34.70;101149.06;5087508;28;20177;-78
2022/08/17 12:15:52;;;;;;;5.53;5.00;;;;;;;33.97;35.04;101144.03;5105497;28;20192;-78
2022/08/17 12:18:31;;;;;;;6.07;5.47;;;;;;;33.85;34.83;101151.09;5105705;28;20212;-77
2022/08/17 12:21:24;;;;;;;8.02;5.07;;;;;;;33.89;34.81;101147.22;5061470;28;20204;-77
2022/08/17 12:24:08;;;;;;;5.68;5.18;;;;;;;34.02;34.08;101147.22;5086646;28;20192;-78
2022/08/17 12:26:35;;;;;;;6.70;5.60;;;;;;;33.85;33.92;101134.28;5070934;28;20192;-78
2022/08/17 12:29:06;;;;;;;6.82;5.03;;;;;;;33.84;33.41;101145.88;5105691;28;20637;-78
2022/08/17 12:31:44;;;;;;;5.80;5.20;;;;;;;33.70;34.18;101152.13;5087365;28;20208;-78
2022/08/17 12:34:26;;;;;;;5.32;4.72;;;;;;;33.68;33.79;101150.53;5101981;28;20188;-78
2022/08/17 12:36:58;;;;;;;5.50;5.00;;;;;;;33.45;34.18;101149.53;5084151;28;20215;-78
2022/08/17 12:39:25;;;;;;;5.90;5.30;;;;;;;33.64;33.81;101149.06;5084463;28;20220;-77
2022/08/17 12:41:55;;;;;;;5.15;4.75;;;;;;;34.05;34.34;101146.97;5086792;28;20676;-77
2022/08/17 12:44:23;;;;;;;5.90;4.97;;;;;;;34.40;33.72;101140.75;5102455;28;20221;-76